sensor_id;sensor_type;location;lat;lon;timestamp;pressure;altitude;pressure_sealevel;temperature;humidity
62712;BME280;48772;55.586;37.730;2023-02-23T00:01:32;99147.19;;;-11.19;100.00
62712;BME280;48772;55.586;37.730;2023-02-23T00:03:58;99191.69;;;-10.90;100.00
62712;BME280;48772;55.586;37.730;2023-02-23T00:06:26;99197.72;;;-10.89;100.00
62712;BME280;48772;55.586;37.730;2023-02-23T00:08:53;99152.31;;;-11.10;100.00
62712;BME280;48772;55.586;37.730;2023-02-23T00:11:20;99208.84;;;-10.82;100.00
62712;BME280;48772;55.586;37.730;2023-02-23T00:13:48;99178.03;;;-11.07;100.00
62712;BME280;48772;55.586;37.730;2023-02-23T00:16:17;99208.91;;;-10.99;100.00
62712;BME280;48772;55.586;37.730;2023-02-23T00:18:51;99210.59;;;-11.00;100.00
62712;BME280;48772;55.586;37.730;2023-02-23T00:21:24;99199.47;;;-11.14;100.00
62712;BME280;48772;55.586;37.730;2023-02-23T00:23:53;99186.66;;;-11.21;100.00
62712;BME280;48772;55.586;37.730;2023-02-23T00:26:20;99207.19;;;-11.14;100.00
62712;BME280;48772;55.586;37.730;2023-02-23T00:28:48;99192.63;;;-11.16;100.00
62712;BME280;48772;55.586;37.730;2023-02-23T00:31:15;99196.94;;;-11.17;100.00
62712;BME280;48772;55.586;37.730;2023-02-23T00:33:43;99208.94;;;-11.19;100.00
62712;BME280;48772;55.586;37.730;2023-02-23T00:36:12;99207.22;;;-11.23;100.00
62712;BME280;48772;55.586;37.730;2023-02-23T00:38:40;99214.94;;;-11.24;100.00
62712;BME280;48772;55.586;37.730;2023-02-23T00:41:11;99143.03;;;-11.68;100.00
62712;BME280;48772;55.586;37.730;2023-02-23T00:43:40;99218.38;;;-11.25;100.00
62712;BME280;48772;55.586;37.730;2023-02-23T00:46:15;99203.81;;;-11.37;100.00
62712;BME280;48772;55.586;37.730;2023-02-23T00:48:46;99233.81;;;-11.30;100.00
62712;BME280;48772;55.586;37.730;2023-02-23T00:51:13;99231.22;;;-11.34;100.00
62712;BME280;48772;55.586;37.730;2023-02-23T00:53:40;99230.41;;;-11.33;100.00
62712;BME280;48772;55.586;37.730;2023-02-23T00:56:10;99238.94;;;-11.30;100.00
62712;BME280;48772;55.586;37.730;2023-02-23T00:58:37;99184.16;;;-11.69;100.00
62712;BME280;48772;55.586;37.730;2023-02-23T01:01:08;99231.25;;;-11.43;100.00
62712;BME280;48772;55.586;37.730;2023-02-23T01:03:34;99227.81;;;-11.47;100.00
62712;BME280;48772;55.586;37.730;2023-02-23T01:06:04;99218.41;;;-11.64;100.00
62712;BME280;48772;55.586;37.730;2023-02-23T01:08:31;99234.66;;;-11.58;100.00
62712;BME280;48772;55.586;37.730;2023-02-23T01:11:04;99243.25;;;-11.56;100.00
62712;BME280;48772;55.586;37.730;2023-02-23T01:13:31;99187.56;;;-11.99;100.00
62712;BME280;48772;55.586;37.730;2023-02-23T01:15:57;99182.44;;;-11.96;100.00
62712;BME280;48772;55.586;37.730;2023-02-23T01:18:24;99234.69;;;-11.73;100.00
62712;BME280;48772;55.586;37.730;2023-02-23T01:20:50;99240.69;;;-11.74;100.00
62712;BME280;48772;55.586;37.730;2023-02-23T01:23:16;99250.97;;;-11.75;100.00
62712;BME280;48772;55.586;37.730;2023-02-23T01:25:43;99239.84;;;-11.82;100.00
62712;BME280;48772;55.586;37.730;2023-02-23T01:28:12;99266.41;;;-11.69;100.00
62712;BME280;48772;55.586;37.730;2023-02-23T01:30:38;99257.81;;;-11.71;100.00
62712;BME280;48772;55.586;37.730;2023-02-23T01:33:06;99273.25;;;-11.68;100.00
62712;BME280;48772;55.586;37.730;2023-02-23T01:35:33;99259.56;;;-11.73;100.00
62712;BME280;48772;55.586;37.730;2023-02-23T01:37:59;99233.81;;;-11.94;100.00
62712;BME280;48772;55.586;37.730;2023-02-23T01:40:26;99269.84;;;-11.76;100.00
62712;BME280;48772;55.586;37.730;2023-02-23T01:42:57;99266.38;;;-11.87;100.00
62712;BME280;48772;55.586;37.730;2023-02-23T01:45:32;99240.66;;;-12.05;100.00
62712;BME280;48772;55.586;37.730;2023-02-23T01:48:47;99235.50;;;-12.10;100.00
62712;BME280;48772;55.586;37.730;2023-02-23T01:50:59;99256.09;;;-11.99;100.00
62712;BME280;48772;55.586;37.730;2023-02-23T01:53:29;99215.78;;;-12.24;100.00
62712;BME280;48772;55.586;37.730;2023-02-23T01:56:06;99268.06;;;-11.98;100.00
62712;BME280;48772;55.586;37.730;2023-02-23T01:58:38;99249.19;;;-12.12;100.00
62712;BME280;48772;55.586;37.730;2023-02-23T02:01:05;99253.47;;;-12.13;100.00
62712;BME280;48772;55.586;37.730;2023-02-23T02:03:43;99275.78;;;-12.01;100.00
62712;BME280;48772;55.586;37.730;2023-02-23T02:06:14;99274.91;;;-11.99;100.00
62712;BME280;48772;55.586;37.730;2023-02-23T02:08:46;99245.75;;;-12.22;100.00
62712;BME280;48772;55.586;37.730;2023-02-23T02:11:17;99276.59;;;-12.10;100.00
62712;BME280;48772;55.586;37.730;2023-02-23T02:13:59;99243.13;;;-12.40;100.00
62712;BME280;48772;55.586;37.730;2023-02-23T02:47:59;99307.25;;;-12.52;100.00
62712;BME280;48772;55.586;37.730;2023-02-23T02:53:14;99291.78;;;-12.65;100.00
62712;BME280;48772;55.586;37.730;2023-02-23T02:55:46;99319.25;;;-12.51;100.00
62712;BME280;48772;55.586;37.730;2023-02-23T02:58:13;99320.09;;;-12.53;100.00
62712;BME280;48772;55.586;37.730;2023-02-23T03:00:46;99325.22;;;-12.55;100.00
62712;BME280;48772;55.586;37.730;2023-02-23T03:06:55;99320.06;;;-12.55;100.00
62712;BME280;48772;55.586;37.730;2023-02-23T03:12:46;99303.72;;;-12.70;100.00
62712;BME280;48772;55.586;37.730;2023-02-23T03:15:44;99329.47;;;-12.60;100.00
62712;BME280;48772;55.586;37.730;2023-02-23T03:18:56;99241.97;;;-13.05;100.00
62712;BME280;48772;55.586;37.730;2023-02-23T03:21:50;99310.56;;;-12.68;100.00
62712;BME280;48772;55.586;37.730;2023-02-23T03:24:55;99329.44;;;-12.64;100.00
62712;BME280;48772;55.586;37.730;2023-02-23T03:27:55;99295.06;;;-12.86;100.00
62712;BME280;48772;55.586;37.730;2023-02-23T03:30:47;99290.75;;;-12.93;100.00
62712;BME280;48772;55.586;37.730;2023-02-23T03:33:42;99319.94;;;-12.77;100.00
62712;BME280;48772;55.586;37.730;2023-02-23T03:36:32;99306.22;;;-12.84;100.00
62712;BME280;48772;55.586;37.730;2023-02-23T03:39:31;99330.25;;;-12.70;100.00
62712;BME280;48772;55.586;37.730;2023-02-23T03:42:18;99320.81;;;-12.77;100.00
62712;BME280;48772;55.586;37.730;2023-02-23T03:45:12;99300.16;;;-12.96;100.00
62712;BME280;48772;55.586;37.730;2023-02-23T03:48:02;99331.88;;;-12.84;100.00
62712;BME280;48772;55.586;37.730;2023-02-23T03:50:52;99343.88;;;-12.78;100.00
62712;BME280;48772;55.586;37.730;2023-02-23T03:53:50;99336.13;;;-12.89;100.00
62712;BME280;48772;55.586;37.730;2023-02-23T03:56:39;99343.81;;;-12.84;100.00
62712;BME280;48772;55.586;37.730;2023-02-23T03:59:30;99342.97;;;-12.88;100.00
62712;BME280;48772;55.586;37.730;2023-02-23T04:02:16;99346.41;;;-12.83;100.00
62712;BME280;48772;55.586;37.730;2023-02-23T04:05:07;99350.69;;;-12.85;100.00
62712;BME280;48772;55.586;37.730;2023-02-23T04:07:53;99347.19;;;-12.96;100.00
62712;BME280;48772;55.586;37.730;2023-02-23T04:10:43;99334.31;;;-13.03;100.00
62712;BME280;48772;55.586;37.730;2023-02-23T04:13:30;99360.84;;;-12.97;100.00
62712;BME280;48772;55.586;37.730;2023-02-23T04:16:02;99341.91;;;-13.17;100.00
62712;BME280;48772;55.586;37.730;2023-02-23T04:18:33;99314.47;;;-13.28;100.00
62712;BME280;48772;55.586;37.730;2023-02-23T04:21:00;99361.66;;;-13.04;100.00
62712;BME280;48772;55.586;37.730;2023-02-23T04:23:27;99307.56;;;-13.34;100.00
62712;BME280;48772;55.586;37.730;2023-02-23T04:25:54;99359.94;;;-13.06;100.00
62712;BME280;48772;55.586;37.730;2023-02-23T04:28:21;99279.16;;;-13.61;100.00
62712;BME280;48772;55.586;37.730;2023-02-23T04:30:48;99250.00;;;-13.73;100.00
62712;BME280;48772;55.586;37.730;2023-02-23T04:33:14;99325.50;;;-13.40;100.00
62712;BME280;48772;55.586;37.730;2023-02-23T04:35:40;99354.69;;;-13.23;100.00
62712;BME280;48772;55.586;37.730;2023-02-23T04:38:06;99357.28;;;-13.20;100.00
62712;BME280;48772;55.586;37.730;2023-02-23T04:40:32;99340.94;;;-13.31;100.00
62712;BME280;48772;55.586;37.730;2023-02-23T04:42:58;99364.94;;;-13.23;100.00
62712;BME280;48772;55.586;37.730;2023-02-23T04:45:24;99280.78;;;-13.70;100.00
62712;BME280;48772;55.586;37.730;2023-02-23T04:47:50;99376.03;;;-13.24;100.00
62712;BME280;48772;55.586;37.730;2023-02-23T04:50:17;99251.59;;;-13.87;100.00
62712;BME280;48772;55.586;37.730;2023-02-23T04:52:43;99370.25;;;-13.00;100.00
62712;BME280;48772;55.586;37.730;2023-02-23T04:55:29;99364.53;;;-12.62;100.00
62712;BME280;48772;55.586;37.730;2023-02-23T04:57:58;99287.31;;;-12.95;100.00
62712;BME280;48772;55.586;37.730;2023-02-23T05:00:26;99367.09;;;-12.60;100.00
62712;BME280;48772;55.586;37.730;2023-02-23T05:02:52;99275.97;;;-13.34;100.00
62712;BME280;48772;55.586;37.730;2023-02-23T05:05:18;99313.63;;;-13.24;100.00
62712;BME280;48772;55.586;37.730;2023-02-23T05:07:44;99380.53;;;-12.93;100.00
62712;BME280;48772;55.586;37.730;2023-02-23T05:10:10;99352.16;;;-13.20;100.00
62712;BME280;48772;55.586;37.730;2023-02-23T05:12:36;99380.41;;;-13.15;100.00
62712;BME280;48772;55.586;37.730;2023-02-23T05:15:02;99234.56;;;-13.84;100.00
62712;BME280;48772;55.586;37.730;2023-02-23T05:17:29;99399.47;;;-12.82;100.00
62712;BME280;48772;55.586;37.730;2023-02-23T05:19:55;99376.25;;;-12.94;100.00
62712;BME280;48772;55.586;37.730;2023-02-23T05:22:21;99368.56;;;-13.00;100.00
62712;BME280;48772;55.586;37.730;2023-02-23T05:24:47;99374.63;;;-12.83;100.00
62712;BME280;48772;55.586;37.730;2023-02-23T05:27:13;99385.41;;;-11.96;100.00
62712;BME280;48772;55.586;37.730;2023-02-23T05:29:40;99392.47;;;-11.20;100.00
62712;BME280;48772;55.586;37.730;2023-02-23T05:32:06;99402.78;;;-10.53;100.00
62712;BME280;48772;55.586;37.730;2023-02-23T05:34:32;99299.75;;;-10.62;100.00
62712;BME280;48772;55.586;37.730;2023-02-23T05:36:58;99369.97;;;-10.00;100.00
62712;BME280;48772;55.586;37.730;2023-02-23T05:39:24;99381.78;;;-9.48;100.00
62712;BME280;48772;55.586;37.730;2023-02-23T05:41:50;99384.22;;;-9.30;100.00
62712;BME280;48772;55.586;37.730;2023-02-23T05:44:17;99330.13;;;-9.42;100.00
62712;BME280;48772;55.586;37.730;2023-02-23T05:46:44;99384.31;;;-9.45;100.00
62712;BME280;48772;55.586;37.730;2023-02-23T05:49:12;99381.28;;;-8.76;100.00
62712;BME280;48772;55.586;37.730;2023-02-23T05:51:38;99395.50;;;-8.30;100.00
62712;BME280;48772;55.586;37.730;2023-02-23T05:54:04;99372.53;;;-7.82;100.00
62712;BME280;48772;55.586;37.730;2023-02-23T05:56:31;99352.03;;;-7.98;100.00
62712;BME280;48772;55.586;37.730;2023-02-23T05:58:57;99387.16;;;-7.79;100.00
62712;BME280;48772;55.586;37.730;2023-02-23T06:01:25;99349.38;;;-7.92;100.00
62712;BME280;48772;55.586;37.730;2023-02-23T06:03:51;99352.53;;;-7.69;100.00
62712;BME280;48772;55.586;37.730;2023-02-23T06:06:17;99389.34;;;-7.46;100.00
62712;BME280;48772;55.586;37.730;2023-02-23T06:08:44;99384.88;;;-7.35;100.00
62712;BME280;48772;55.586;37.730;2023-02-23T06:11:10;99375.75;;;-7.03;100.00
62712;BME280;48772;55.586;37.730;2023-02-23T06:13:36;99374.03;;;-6.49;100.00
62712;BME280;48772;55.586;37.730;2023-02-23T06:16:02;99405.22;;;-6.05;100.00
62712;BME280;48772;55.586;37.730;2023-02-23T06:18:29;99397.50;;;-5.64;100.00
62712;BME280;48772;55.586;37.730;2023-02-23T06:20:57;99383.03;;;-5.77;97.05
62712;BME280;48772;55.586;37.730;2023-02-23T06:23:23;99400.66;;;-5.50;94.70
62712;BME280;48772;55.586;37.730;2023-02-23T06:25:49;99373.63;;;-5.41;91.26
62712;BME280;48772;55.586;37.730;2023-02-23T06:28:15;99394.88;;;-5.23;89.95
62712;BME280;48772;55.586;37.730;2023-02-23T06:30:41;99373.78;;;-5.47;89.45
62712;BME280;48772;55.586;37.730;2023-02-23T06:33:07;99397.91;;;-5.03;86.45
62712;BME280;48772;55.586;37.730;2023-02-23T06:35:33;99366.00;;;-5.09;81.94
62712;BME280;48772;55.586;37.730;2023-02-23T06:38:00;99289.16;;;-5.57;82.32
62712;BME280;48772;55.586;37.730;2023-02-23T06:40:26;99364.34;;;-4.77;80.58
62712;BME280;48772;55.586;37.730;2023-02-23T06:42:53;99396.38;;;-4.06;75.46
62712;BME280;48772;55.586;37.730;2023-02-23T06:45:19;99391.75;;;-3.95;70.87
62712;BME280;48772;55.586;37.730;2023-02-23T06:47:45;99348.16;;;-3.89;70.65
62712;BME280;48772;55.586;37.730;2023-02-23T06:50:13;99388.63;;;-3.45;67.51
62712;BME280;48772;55.586;37.730;2023-02-23T06:52:39;99352.44;;;-3.56;65.66
62712;BME280;48772;55.586;37.730;2023-02-23T06:55:05;99394.13;;;-3.56;65.81
62712;BME280;48772;55.586;37.730;2023-02-23T06:57:31;99329.63;;;-3.47;64.13
62712;BME280;48772;55.586;37.730;2023-02-23T06:59:59;99375.44;;;-3.11;63.07
62712;BME280;48772;55.586;37.730;2023-02-23T07:02:26;99388.50;;;-2.84;61.34
62712;BME280;48772;55.586;37.730;2023-02-23T07:04:52;99400.50;;;-2.78;59.91
62712;BME280;48772;55.586;37.730;2023-02-23T07:07:17;99351.34;;;-3.19;59.54
62712;BME280;48772;55.586;37.730;2023-02-23T07:09:43;99420.41;;;-3.03;59.76
62712;BME280;48772;55.586;37.730;2023-02-23T07:12:09;99386.69;;;-2.54;58.63
62712;BME280;48772;55.586;37.730;2023-02-23T07:14:36;99407.91;;;-2.37;56.67
62712;BME280;48772;55.586;37.730;2023-02-23T07:17:04;99409.00;;;-1.69;54.62
62712;BME280;48772;55.586;37.730;2023-02-23T07:19:31;99408.78;;;-1.39;52.04
62712;BME280;48772;55.586;37.730;2023-02-23T07:21:57;99417.22;;;-1.55;51.24
62712;BME280;48772;55.586;37.730;2023-02-23T07:24:23;99362.06;;;-1.72;51.45
62712;BME280;48772;55.586;37.730;2023-02-23T07:26:49;99394.19;;;-0.98;51.25
62712;BME280;48772;55.586;37.730;2023-02-23T07:29:16;99396.28;;;-0.63;48.77
62712;BME280;48772;55.586;37.730;2023-02-23T07:31:42;99393.94;;;-0.92;48.31
62712;BME280;48772;55.586;37.730;2023-02-23T07:34:09;99414.47;;;-0.39;48.15
62712;BME280;48772;55.586;37.730;2023-02-23T07:36:35;99357.25;;;-0.69;48.06
62712;BME280;48772;55.586;37.730;2023-02-23T07:39:02;99324.19;;;-0.93;47.29
62712;BME280;48772;55.586;37.730;2023-02-23T07:41:29;99374.84;;;-0.51;47.62
62712;BME280;48772;55.586;37.730;2023-02-23T07:43:55;99389.44;;;-0.24;46.75
62712;BME280;48772;55.586;37.730;2023-02-23T07:46:21;99315.06;;;-0.83;46.78
62712;BME280;48772;55.586;37.730;2023-02-23T07:48:48;99355.91;;;-0.16;45.86
62712;BME280;48772;55.586;37.730;2023-02-23T07:51:14;99382.00;;;0.27;45.29
62712;BME280;48772;55.586;37.730;2023-02-23T07:53:42;99314.66;;;0.09;45.05
62712;BME280;48772;55.586;37.730;2023-02-23T07:56:10;99316.88;;;-0.02;44.97
62712;BME280;48772;55.586;37.730;2023-02-23T07:58:38;99354.09;;;0.65;43.58
62712;BME280;48772;55.586;37.730;2023-02-23T08:01:05;99416.00;;;0.87;43.58
62712;BME280;48772;55.586;37.730;2023-02-23T08:03:31;99381.28;;;0.24;43.70
62712;BME280;48772;55.586;37.730;2023-02-23T08:05:57;99353.28;;;0.63;43.61
62712;BME280;48772;55.586;37.730;2023-02-23T08:08:23;99396.75;;;0.88;43.00
62712;BME280;48772;55.586;37.730;2023-02-23T08:10:49;99417.84;;;1.78;41.76
62712;BME280;48772;55.586;37.730;2023-02-23T08:13:15;99388.03;;;1.60;41.45
62712;BME280;48772;55.586;37.730;2023-02-23T08:15:42;99361.28;;;1.52;40.56
62712;BME280;48772;55.586;37.730;2023-02-23T08:18:11;99345.72;;;1.48;40.82
62712;BME280;48772;55.586;37.730;2023-02-23T08:20:37;99390.09;;;2.23;39.60
62712;BME280;48772;55.586;37.730;2023-02-23T08:23:03;99359.31;;;2.25;38.91
62712;BME280;48772;55.586;37.730;2023-02-23T08:25:29;99392.00;;;2.54;38.47
62712;BME280;48772;55.586;37.730;2023-02-23T08:27:55;99396.31;;;3.04;37.73
62712;BME280;48772;55.586;37.730;2023-02-23T08:30:21;99407.88;;;3.17;37.03
62712;BME280;48772;55.586;37.730;2023-02-23T08:32:48;99411.13;;;3.22;37.13
62712;BME280;48772;55.586;37.730;2023-02-23T08:35:15;99402.44;;;3.20;36.85
62712;BME280;48772;55.586;37.730;2023-02-23T08:37:41;99380.75;;;3.46;36.77
62712;BME280;48772;55.586;37.730;2023-02-23T08:40:07;99411.91;;;3.56;36.27
62712;BME280;48772;55.586;37.730;2023-02-23T08:42:34;99399.00;;;3.96;35.59
62712;BME280;48772;55.586;37.730;2023-02-23T08:44:59;99394.34;;;4.15;34.84
62712;BME280;48772;55.586;37.730;2023-02-23T08:47:26;99403.47;;;4.10;34.83
62712;BME280;48772;55.586;37.730;2023-02-23T08:49:52;99378.25;;;4.20;34.96
62712;BME280;48772;55.586;37.730;2023-02-23T08:52:21;99368.19;;;3.97;34.73
62712;BME280;48772;55.586;37.730;2023-02-23T08:54:48;99367.81;;;4.03;34.39
62712;BME280;48772;55.586;37.730;2023-02-23T08:57:14;99405.63;;;4.33;34.89
62712;BME280;48772;55.586;37.730;2023-02-23T08:59:40;99385.22;;;3.91;33.90
62712;BME280;48772;55.586;37.730;2023-02-23T09:02:10;99394.81;;;4.08;34.22
62712;BME280;48772;55.586;37.730;2023-02-23T09:04:37;99357.16;;;4.34;33.65
62712;BME280;48772;55.586;37.730;2023-02-23T09:07:03;99362.78;;;3.84;33.73
62712;BME280;48772;55.586;37.730;2023-02-23T09:09:29;99417.41;;;4.85;33.60
62712;BME280;48772;55.586;37.730;2023-02-23T09:11:55;99422.28;;;4.91;32.60
62712;BME280;48772;55.586;37.730;2023-02-23T09:14:21;99411.34;;;3.96;33.63
62712;BME280;48772;55.586;37.730;2023-02-23T09:16:47;99398.84;;;3.84;33.69
62712;BME280;48772;55.586;37.730;2023-02-23T09:19:13;99403.44;;;3.96;33.59
62712;BME280;48772;55.586;37.730;2023-02-23T09:21:38;99414.91;;;4.68;33.18
62712;BME280;48772;55.586;37.730;2023-02-23T09:24:04;99388.13;;;5.16;32.81
62712;BME280;48772;55.586;37.730;2023-02-23T09:26:31;99373.91;;;5.18;31.96
62712;BME280;48772;55.586;37.730;2023-02-23T09:28:59;99347.53;;;4.19;32.43
62712;BME280;48772;55.586;37.730;2023-02-23T09:31:25;99398.50;;;5.33;32.30
62712;BME280;48772;55.586;37.730;2023-02-23T09:33:52;99329.75;;;4.50;32.03
62712;BME280;48772;55.586;37.730;2023-02-23T09:36:21;99407.84;;;5.38;31.60
62712;BME280;48772;55.586;37.730;2023-02-23T09:38:49;99405.13;;;5.40;31.53
62712;BME280;48772;55.586;37.730;2023-02-23T09:50:24;99337.53;;;6.40;29.73
62712;BME280;48772;55.586;37.730;2023-02-23T10:02:03;99381.03;;;7.37;27.95
62712;BME280;48772;55.586;37.730;2023-02-23T10:04:46;99359.34;;;7.19;27.69
62712;BME280;48772;55.586;37.730;2023-02-23T10:11:02;99378.94;;;7.29;27.70
62712;BME280;48772;55.586;37.730;2023-02-23T10:16:35;99265.38;;;7.11;28.09
62712;BME280;48772;55.586;37.730;2023-02-23T10:19:09;99365.50;;;7.79;27.21
62712;BME280;48772;55.586;37.730;2023-02-23T10:21:44;99323.50;;;7.97;26.68
62712;BME280;48772;55.586;37.730;2023-02-23T10:24:35;99360.19;;;8.26;26.60
62712;BME280;48772;55.586;37.730;2023-02-23T10:27:13;99359.56;;;7.52;27.21
62712;BME280;48772;55.586;37.730;2023-02-23T10:29:51;99332.78;;;6.70;27.19
62712;BME280;48772;55.586;37.730;2023-02-23T10:35:18;99369.75;;;6.47;28.07
62712;BME280;48772;55.586;37.730;2023-02-23T10:37:46;99361.25;;;6.92;27.59
62712;BME280;48772;55.586;37.730;2023-02-23T10:40:18;99322.06;;;6.34;27.82
62712;BME280;48772;55.586;37.730;2023-02-23T10:42:46;99309.75;;;6.08;28.25
62712;BME280;48772;55.586;37.730;2023-02-23T10:45:17;99330.09;;;6.33;28.99
62712;BME280;48772;55.586;37.730;2023-02-23T10:48:05;99349.50;;;6.33;28.77
62712;BME280;48772;55.586;37.730;2023-02-23T10:50:32;99354.91;;;6.95;28.38
62712;BME280;48772;55.586;37.730;2023-02-23T10:53:03;99335.09;;;7.00;28.26
62712;BME280;48772;55.586;37.730;2023-02-23T10:55:35;99336.84;;;5.99;28.06
62712;BME280;48772;55.586;37.730;2023-02-23T10:58:09;99372.63;;;6.05;29.19
62712;BME280;48772;55.586;37.730;2023-02-23T11:05:48;99331.63;;;5.18;29.40
62712;BME280;48772;55.586;37.730;2023-02-23T11:08:31;99365.91;;;4.92;30.06
62712;BME280;48772;55.586;37.730;2023-02-23T11:13:43;99358.25;;;5.15;30.17
62712;BME280;48772;55.586;37.730;2023-02-23T11:16:21;99366.06;;;5.17;30.77
62712;BME280;48772;55.586;37.730;2023-02-23T11:18:51;99368.13;;;5.12;30.56
62712;BME280;48772;55.586;37.730;2023-02-23T11:21:36;99352.41;;;4.82;30.47
62712;BME280;48772;55.586;37.730;2023-02-23T11:24:21;99361.53;;;4.49;30.70
62712;BME280;48772;55.586;37.730;2023-02-23T11:26:50;99346.94;;;4.00;31.33
62712;BME280;48772;55.586;37.730;2023-02-23T11:29:31;99340.22;;;4.80;30.31
62712;BME280;48772;55.586;37.730;2023-02-23T11:32:03;99354.50;;;5.46;29.66
62712;BME280;48772;55.586;37.730;2023-02-23T11:34:36;99354.53;;;5.32;29.44
62712;BME280;48772;55.586;37.730;2023-02-23T11:39:54;99324.09;;;4.98;29.76
62712;BME280;48772;55.586;37.730;2023-02-23T11:42:22;99354.44;;;5.60;29.23
62712;BME280;48772;55.586;37.730;2023-02-23T11:47:19;99339.41;;;5.60;30.20
62712;BME280;48772;55.586;37.730;2023-02-23T11:49:47;99351.53;;;3.51;31.25
62712;BME280;48772;55.586;37.730;2023-02-23T11:52:19;99357.88;;;3.63;31.21
62712;BME280;48772;55.586;37.730;2023-02-23T11:54:59;99361.97;;;3.53;32.17
62712;BME280;48772;55.586;37.730;2023-02-23T11:57:31;99320.72;;;3.97;31.41
62712;BME280;48772;55.586;37.730;2023-02-23T12:00:08;99338.44;;;4.38;31.35
62712;BME280;48772;55.586;37.730;2023-02-23T12:02:53;99340.41;;;4.49;30.34
62712;BME280;48772;55.586;37.730;2023-02-23T12:05:27;99335.19;;;4.33;30.99
62712;BME280;48772;55.586;37.730;2023-02-23T12:08:24;99344.34;;;5.12;29.89
62712;BME280;48772;55.586;37.730;2023-02-23T12:10:53;99281.03;;;4.56;29.78
62712;BME280;48772;55.586;37.730;2023-02-23T12:13:30;99350.69;;;4.39;30.54
62712;BME280;48772;55.586;37.730;2023-02-23T12:16:22;99331.41;;;4.09;30.49
62712;BME280;48772;55.586;37.730;2023-02-23T12:18:58;99361.78;;;3.71;31.49
62712;BME280;48772;55.586;37.730;2023-02-23T12:24:52;99300.59;;;3.35;31.03
62712;BME280;48772;55.586;37.730;2023-02-23T12:27:36;99348.97;;;3.18;32.01
62712;BME280;48772;55.586;37.730;2023-02-23T12:30:20;99318.94;;;3.68;31.72
62712;BME280;48772;55.586;37.730;2023-02-23T12:32:58;99272.22;;;3.99;31.34
62712;BME280;48772;55.586;37.730;2023-02-23T12:35:38;99298.53;;;4.15;31.54
62712;BME280;48772;55.586;37.730;2023-02-23T12:38:43;99343.44;;;4.85;30.88
62712;BME280;48772;55.586;37.730;2023-02-23T12:44:48;99339.28;;;3.95;31.58
62712;BME280;48772;55.586;37.730;2023-02-23T12:48:06;99346.22;;;4.26;30.87
62712;BME280;48772;55.586;37.730;2023-02-23T12:50:59;99306.06;;;4.35;30.62
62712;BME280;48772;55.586;37.730;2023-02-23T12:53:57;99318.56;;;3.74;30.68
62712;BME280;48772;55.586;37.730;2023-02-23T13:19:48;99356.88;;;2.05;34.21
62712;BME280;48772;55.586;37.730;2023-02-23T13:28:51;99360.34;;;2.55;33.63
62712;BME280;48772;55.586;37.730;2023-02-23T13:31:38;99242.75;;;1.58;33.62
62712;BME280;48772;55.586;37.730;2023-02-23T13:34:30;99261.97;;;0.89;35.14
62712;BME280;48772;55.586;37.730;2023-02-23T13:37:07;99240.44;;;0.83;35.04
62712;BME280;48772;55.586;37.730;2023-02-23T13:50:00;99299.13;;;0.62;37.03
62712;BME280;48772;55.586;37.730;2023-02-23T13:52:51;99287.44;;;0.69;37.10
62712;BME280;48772;55.586;37.730;2023-02-23T13:55:56;99325.84;;;1.07;37.32
62712;BME280;48772;55.586;37.730;2023-02-23T13:58:34;99378.56;;;1.39;37.51
62712;BME280;48772;55.586;37.730;2023-02-23T14:04:15;99322.47;;;1.05;38.38
62712;BME280;48772;55.586;37.730;2023-02-23T14:07:51;99307.06;;;0.60;38.69
62712;BME280;48772;55.586;37.730;2023-02-23T14:10:39;99252.28;;;-0.23;39.63
62712;BME280;48772;55.586;37.730;2023-02-23T14:13:56;99301.34;;;-0.27;41.54
62712;BME280;48772;55.586;37.730;2023-02-23T14:16:26;99377.28;;;-0.05;42.96
62712;BME280;48772;55.586;37.730;2023-02-23T14:19:36;99244.38;;;-1.46;45.46
62712;BME280;48772;55.586;37.730;2023-02-23T14:22:17;99379.72;;;-0.42;46.68
62712;BME280;48772;55.586;37.730;2023-02-23T14:28:42;99306.28;;;-1.94;52.88
62712;BME280;48772;55.586;37.730;2023-02-23T14:48:19;99383.41;;;-4.08;87.48
62712;BME280;48772;55.586;37.730;2023-02-23T14:51:56;99371.66;;;-4.22;91.13
62712;BME280;48772;55.586;37.730;2023-02-23T14:54:47;99281.84;;;-4.69;92.00
62712;BME280;48772;55.586;37.730;2023-02-23T14:57:40;99286.34;;;-4.77;93.32
62712;BME280;48772;55.586;37.730;2023-02-23T15:00:47;99358.31;;;-4.44;94.70
62712;BME280;48772;55.586;37.730;2023-02-23T15:03:40;99236.19;;;-5.15;96.63
62712;BME280;48772;55.586;37.730;2023-02-23T15:07:00;99218.44;;;-5.33;97.10
62712;BME280;48772;55.586;37.730;2023-02-23T15:09:46;99314.66;;;-5.00;97.00
62712;BME280;48772;55.586;37.730;2023-02-23T15:12:29;99272.81;;;-5.24;98.03
62712;BME280;48772;55.586;37.730;2023-02-23T15:15:38;99262.56;;;-5.30;100.00
62712;BME280;48772;55.586;37.730;2023-02-23T15:19:16;99362.03;;;-4.87;98.76
62712;BME280;48772;55.586;37.730;2023-02-23T15:22:29;99351.94;;;-5.01;99.29
62712;BME280;48772;55.586;37.730;2023-02-23T15:25:40;99361.91;;;-5.21;100.00
62712;BME280;48772;55.586;37.730;2023-02-23T15:28:57;99360.75;;;-5.06;100.00
62712;BME280;48772;55.586;37.730;2023-02-23T15:49:20;99373.50;;;-5.35;100.00
62712;BME280;48772;55.586;37.730;2023-02-23T15:53:27;99370.06;;;-5.36;100.00
62712;BME280;48772;55.586;37.730;2023-02-23T16:06:39;99355.06;;;-5.63;100.00
62712;BME280;48772;55.586;37.730;2023-02-23T16:12:00;99330.22;;;-5.76;100.00
62712;BME280;48772;55.586;37.730;2023-02-23T16:14:33;99354.13;;;-5.60;100.00
62712;BME280;48772;55.586;37.730;2023-02-23T16:17:01;99348.16;;;-5.64;100.00
62712;BME280;48772;55.586;37.730;2023-02-23T16:19:39;99348.28;;;-5.70;100.00
62712;BME280;48772;55.586;37.730;2023-02-23T16:22:24;99261.09;;;-6.19;100.00
62712;BME280;48772;55.586;37.730;2023-02-23T16:25:09;99299.47;;;-5.94;100.00
62712;BME280;48772;55.586;37.730;2023-02-23T16:28:11;99342.88;;;-5.61;100.00